Time;durP1;ratioP1;P1;durP2;ratioP2;P2;SDS_P1;SDS_P2;PMS_P1;PMS_P2;Temp;Humidity;BMP_temperature;BMP_pressure;BME280_temperature;BME280_humidity;BME280_pressure;Samples;Min_cycle;Max_cycle;Signal;HPM_P1;HPM_P2
2021/08/17 00:00:07;;;;;;;2.51;2.31;;;;;;;22.29;71.73;100717.96;;;;-51
2021/08/17 00:03:07;;;;;;;3.13;2.63;;;;;;;22.29;71.66;100724.17;;;;-51
2021/08/17 00:06:07;;;;;;;2.55;2.35;;;;;;;22.29;71.68;100721.32;;;;-58
2021/08/17 00:09:07;;;;;;;2.69;2.37;;;;;;;22.28;71.61;100728.31;;;;-58
2021/08/17 00:12:07;;;;;;;2.56;2.27;;;;;;;22.27;71.60;100728.01;;;;-51
2021/08/17 00:15:08;;;;;;;2.81;2.40;;;;;;;22.28;71.66;100729.70;;;;-54
2021/08/17 00:18:07;;;;;;;2.67;2.31;;;;;;;22.27;71.60;100729.89;;;;-58
2021/08/17 00:21:07;;;;;;;2.53;2.28;;;;;;;22.26;71.63;100726.61;;;;-51
2021/08/17 00:24:07;;;;;;;2.53;2.33;;;;;;;22.25;71.58;100724.82;;;;-55
2021/08/17 00:27:07;;;;;;;2.51;2.30;;;;;;;22.25;71.53;100724.98;;;;-54
2021/08/17 00:30:07;;;;;;;2.78;2.30;;;;;;;22.25;71.54;100728.58;;;;-54
2021/08/17 00:33:07;;;;;;;2.50;2.21;;;;;;;22.25;71.55;100731.03;;;;-56
2021/08/17 00:36:07;;;;;;;2.61;2.39;;;;;;;22.24;71.55;100731.75;;;;-58
2021/08/17 00:39:07;;;;;;;2.40;2.07;;;;;;;22.24;71.51;100734.20;;;;-51
2021/08/17 00:42:07;;;;;;;3.23;2.88;;;;;;;22.23;71.52;100726.59;;;;-51
2021/08/17 00:45:07;;;;;;;2.46;2.26;;;;;;;22.22;71.52;100722.09;;;;-54
2021/08/17 00:48:07;;;;;;;2.71;2.41;;;;;;;22.22;71.50;100717.19;;;;-54
2021/08/17 00:51:07;;;;;;;2.55;2.35;;;;;;;22.22;71.50;100723.23;;;;-54
2021/08/17 00:54:07;;;;;;;2.62;2.42;;;;;;;22.20;71.51;100725.54;;;;-54
2021/08/17 00:57:07;;;;;;;2.50;2.30;;;;;;;22.21;71.51;100728.23;;;;-54
2021/08/17 01:00:07;;;;;;;2.49;2.29;;;;;;;22.19;71.49;100728.95;;;;-54
2021/08/17 01:03:07;;;;;;;2.42;2.20;;;;;;;22.19;71.55;100727.25;;;;-54
2021/08/17 01:06:07;;;;;;;3.33;2.37;;;;;;;22.19;71.51;100727.41;;;;-54
2021/08/17 01:09:07;;;;;;;2.38;2.17;;;;;;;22.19;71.56;100727.90;;;;-51
2021/08/17 01:12:07;;;;;;;2.47;2.27;;;;;;;22.18;71.47;100729.30;;;;-51
2021/08/17 01:15:07;;;;;;;2.67;2.31;;;;;;;22.18;71.55;100734.58;;;;-54
2021/08/17 01:18:07;;;;;;;2.75;2.28;;;;;;;22.18;71.53;100735.98;;;;-51
2021/08/17 01:21:08;;;;;;;2.47;2.27;;;;;;;22.17;71.50;100732.30;;;;-51
2021/08/17 01:24:07;;;;;;;2.50;2.30;;;;;;;22.17;71.51;100735.17;;;;-58
2021/08/17 01:27:07;;;;;;;2.50;2.28;;;;;;;22.17;71.48;100738.84;;;;-58
2021/08/17 01:30:07;;;;;;;2.41;2.21;;;;;;;22.16;71.49;100738.25;;;;-50
2021/08/17 01:33:07;;;;;;;2.68;2.40;;;;;;;22.16;71.46;100741.52;;;;-50
2021/08/17 01:36:07;;;;;;;2.51;2.31;;;;;;;22.15;71.49;100742.02;;;;-51
2021/08/17 01:39:07;;;;;;;2.44;2.24;;;;;;;22.15;71.47;100746.52;;;;-58
2021/08/17 01:42:07;;;;;;;2.69;2.21;;;;;;;22.15;71.45;100748.16;;;;-54
2021/08/17 01:45:07;;;;;;;2.40;2.20;;;;;;;22.15;71.45;100752.40;;;;-51
2021/08/17 01:48:07;;;;;;;2.64;2.37;;;;;;;22.15;71.47;100756.97;;;;-58
2021/08/17 01:51:07;;;;;;;2.78;2.38;;;;;;;22.14;71.45;100755.23;;;;-54
2021/08/17 01:54:07;;;;;;;2.52;2.31;;;;;;;22.14;71.48;100757.36;;;;-58
2021/08/17 01:57:07;;;;;;;2.52;2.31;;;;;;;22.13;71.42;100757.52;;;;-51
2021/08/17 02:00:07;;;;;;;2.97;2.27;;;;;;;22.13;71.41;100758.35;;;;-51
2021/08/17 02:03:07;;;;;;;2.43;2.23;;;;;;;22.13;71.39;100763.41;;;;-51
2021/08/17 02:06:07;;;;;;;2.58;2.21;;;;;;;22.13;71.41;100764.39;;;;-51
2021/08/17 02:09:07;;;;;;;2.28;2.08;;;;;;;22.12;71.43;100764.70;;;;-51
2021/08/17 02:12:07;;;;;;;2.39;2.19;;;;;;;22.12;71.36;100765.52;;;;-51
2021/08/17 02:15:07;;;;;;;2.37;2.17;;;;;;;22.11;71.43;100764.70;;;;-56
2021/08/17 02:18:07;;;;;;;2.75;2.33;;;;;;;22.11;71.38;100765.70;;;;-54
2021/08/17 02:21:07;;;;;;;2.95;2.12;;;;;;;22.11;71.38;100767.00;;;;-55
2021/08/17 02:24:07;;;;;;;2.44;2.24;;;;;;;22.10;71.33;100770.33;;;;-54
2021/08/17 02:27:07;;;;;;;2.46;2.26;;;;;;;22.10;71.33;100774.41;;;;-54
2021/08/17 02:30:07;;;;;;;2.51;2.31;;;;;;;22.10;71.36;100779.88;;;;-54
2021/08/17 02:33:07;;;;;;;2.56;2.36;;;;;;;22.10;71.36;100787.39;;;;-51
2021/08/17 02:36:07;;;;;;;2.43;2.23;;;;;;;22.09;71.37;100796.29;;;;-51
2021/08/17 02:39:07;;;;;;;2.48;2.28;;;;;;;22.08;71.35;100798.42;;;;-58
2021/08/17 02:42:07;;;;;;;2.51;2.17;;;;;;;22.09;71.31;100801.45;;;;-54
2021/08/17 02:45:07;;;;;;;2.61;2.35;;;;;;;22.08;71.36;100802.11;;;;-51
2021/08/17 02:48:07;;;;;;;2.82;2.29;;;;;;;22.08;71.35;100802.67;;;;-51
2021/08/17 02:51:07;;;;;;;2.54;2.34;;;;;;;22.08;71.35;100802.11;;;;-51
2021/08/17 02:54:07;;;;;;;2.41;2.18;;;;;;;22.08;71.36;100798.49;;;;-51
2021/08/17 02:57:07;;;;;;;2.69;2.33;;;;;;;22.07;71.39;100800.63;;;;-51
2021/08/17 03:00:07;;;;;;;2.36;2.09;;;;;;;22.07;71.36;100804.87;;;;-58
2021/08/17 03:03:07;;;;;;;2.65;2.21;;;;;;;22.06;71.38;100801.53;;;;-50
2021/08/17 03:06:07;;;;;;;2.46;2.26;;;;;;;22.06;71.29;100800.30;;;;-51
2021/08/17 03:09:07;;;;;;;2.41;2.21;;;;;;;22.06;71.39;100800.80;;;;-58
2021/08/17 03:12:07;;;;;;;2.38;2.18;;;;;;;22.06;71.38;100799.14;;;;-58
2021/08/17 03:15:07;;;;;;;2.29;2.09;;;;;;;22.05;71.37;100799.23;;;;-51
2021/08/17 03:18:07;;;;;;;2.40;2.19;;;;;;;22.05;71.37;100800.22;;;;-51
2021/08/17 03:21:07;;;;;;;2.47;2.27;;;;;;;22.05;71.40;100803.55;;;;-56
2021/08/17 03:24:07;;;;;;;2.45;2.25;;;;;;;22.04;71.33;100801.20;;;;-54
2021/08/17 03:27:07;;;;;;;2.73;2.49;;;;;;;22.04;71.33;100804.36;;;;-51
2021/08/17 03:30:07;;;;;;;2.37;2.12;;;;;;;22.04;71.33;100805.04;;;;-51
2021/08/17 03:33:07;;;;;;;2.50;2.30;;;;;;;22.04;71.33;100805.29;;;;-51
2021/08/17 03:36:07;;;;;;;2.29;2.09;;;;;;;22.04;71.39;100802.27;;;;-58
2021/08/17 03:39:07;;;;;;;2.49;2.13;;;;;;;22.03;71.40;100807.80;;;;-51
2021/08/17 03:42:07;;;;;;;2.41;2.21;;;;;;;22.03;71.34;100811.62;;;;-51
2021/08/17 03:45:07;;;;;;;2.29;2.09;;;;;;;22.03;71.30;100812.12;;;;-58
2021/08/17 03:48:07;;;;;;;2.54;2.31;;;;;;;22.02;71.36;100811.16;;;;-54
2021/08/17 03:51:07;;;;;;;3.23;2.21;;;;;;;22.02;71.33;100809.20;;;;-51
2021/08/17 03:54:07;;;;;;;2.60;2.40;;;;;;;22.02;71.37;100807.08;;;;-58
2021/08/17 03:57:07;;;;;;;2.43;2.20;;;;;;;22.02;71.31;100807.73;;;;-56
2021/08/17 04:00:07;;;;;;;2.71;2.11;;;;;;;22.02;71.36;100809.77;;;;-58
2021/08/17 04:03:07;;;;;;;2.41;2.21;;;;;;;22.01;71.39;100813.75;;;;-51
2021/08/17 04:06:07;;;;;;;2.51;2.31;;;;;;;22.00;71.38;100818.09;;;;-51
2021/08/17 04:09:07;;;;;;;2.40;2.20;;;;;;;22.00;71.36;100823.96;;;;-51
2021/08/17 04:12:07;;;;;;;2.41;2.20;;;;;;;22.00;71.42;100826.17;;;;-51
2021/08/17 04:19:07;;;;;;;2.31;2.11;;;;;;;22.00;71.47;100842.33;;;;-51
2021/08/17 04:22:07;;;;;;;2.36;2.15;;;;;;;22.00;71.47;100842.98;;;;-51
2021/08/17 04:25:07;;;;;;;2.34;2.14;;;;;;;22.00;71.51;100843.15;;;;-54
2021/08/17 04:28:07;;;;;;;2.30;2.10;;;;;;;21.99;71.52;100841.00;;;;-51
2021/08/17 04:31:07;;;;;;;2.40;2.20;;;;;;;21.99;71.52;100845.58;;;;-50
2021/08/17 04:34:07;;;;;;;2.40;2.20;;;;;;;21.98;71.53;100842.23;;;;-54
2021/08/17 04:37:07;;;;;;;2.51;2.19;;;;;;;21.98;71.59;100845.99;;;;-50
2021/08/17 04:40:07;;;;;;;2.40;2.20;;;;;;;21.98;71.50;100846.00;;;;-54
2021/08/17 04:43:07;;;;;;;2.28;2.08;;;;;;;21.98;71.62;100850.24;;;;-58
2021/08/17 04:46:07;;;;;;;2.16;1.95;;;;;;;21.98;71.58;100844.94;;;;-58
2021/08/17 04:49:08;;;;;;;2.23;2.03;;;;;;;21.98;71.57;100851.31;;;;-58
2021/08/17 04:52:07;;;;;;;2.62;2.39;;;;;;;21.97;71.55;100848.67;;;;-57
2021/08/17 04:55:07;;;;;;;2.31;2.11;;;;;;;21.97;71.60;100846.96;;;;-56
2021/08/17 04:58:08;;;;;;;2.22;2.02;;;;;;;21.97;71.54;100850.87;;;;-54
2021/08/17 05:01:07;;;;;;;2.43;2.23;;;;;;;21.96;71.62;100853.17;;;;-58
2021/08/17 05:04:08;;;;;;;2.35;2.15;;;;;;;21.97;71.61;100850.80;;;;-54
2021/08/17 05:07:07;;;;;;;2.33;2.13;;;;;;;21.96;71.65;100850.08;;;;-53
2021/08/17 05:10:07;;;;;;;4.58;2.56;;;;;;;21.91;69.93;100847.27;;;;-51
2021/08/17 05:13:07;;;;;;;8.13;4.05;;;;;;;21.62;63.60;100850.12;;;;-51
2021/08/17 05:16:07;;;;;;;7.37;3.82;;;;;;;21.59;65.63;100855.09;;;;-50
2021/08/17 05:19:07;;;;;;;4.37;3.61;;;;;;;21.61;65.76;100864.97;;;;-50
2021/08/17 05:22:07;;;;;;;5.63;3.48;;;;;;;21.64;66.27;100869.95;;;;-50
2021/08/17 05:25:07;;;;;;;3.97;3.26;;;;;;;21.66;67.37;100867.99;;;;-50
2021/08/17 05:28:07;;;;;;;4.57;3.34;;;;;;;21.68;67.94;100860.34;;;;-56
2021/08/17 05:31:07;;;;;;;3.70;3.31;;;;;;;21.69;68.22;100865.25;;;;-54
2021/08/17 05:34:07;;;;;;;4.05;3.58;;;;;;;21.70;68.11;100867.44;;;;-55
2021/08/17 05:37:07;;;;;;;4.17;3.25;;;;;;;21.72;68.43;100862.73;;;;-51
2021/08/17 05:40:07;;;;;;;5.07;3.25;;;;;;;21.73;68.45;100863.77;;;;-51
2021/08/17 05:43:07;;;;;;;4.73;3.33;;;;;;;21.74;68.63;100867.30;;;;-51
2021/08/17 05:46:07;;;;;;;4.23;3.28;;;;;;;21.75;68.94;100874.25;;;;-51
2021/08/17 05:49:07;;;;;;;4.20;3.31;;;;;;;21.75;68.99;100873.36;;;;-51
2021/08/17 05:52:07;;;;;;;3.88;3.23;;;;;;;21.75;69.18;100871.39;;;;-51
2021/08/17 05:55:07;;;;;;;4.44;3.21;;;;;;;21.76;69.19;100871.96;;;;-51
2021/08/17 05:58:07;;;;;;;5.85;3.31;;;;;;;21.76;69.32;100876.86;;;;-51
2021/08/17 06:01:07;;;;;;;4.21;3.45;;;;;;;21.76;69.53;100883.95;;;;-51
2021/08/17 06:04:07;;;;;;;3.66;3.20;;;;;;;21.77;69.55;100886.91;;;;-51
2021/08/17 06:07:07;;;;;;;4.06;3.33;;;;;;;21.77;69.60;100891.31;;;;-51
2021/08/17 06:10:07;;;;;;;3.64;3.17;;;;;;;21.77;69.62;100889.35;;;;-51
2021/08/17 06:13:07;;;;;;;3.60;3.20;;;;;;;21.76;69.79;100892.92;;;;-51
2021/08/17 06:16:07;;;;;;;3.92;3.11;;;;;;;21.77;69.86;100900.28;;;;-51
2021/08/17 06:19:07;;;;;;;3.30;3.00;;;;;;;21.77;69.83;100898.89;;;;-50
2021/08/17 06:22:07;;;;;;;3.50;3.00;;;;;;;21.77;70.03;100896.77;;;;-51
2021/08/17 06:25:07;;;;;;;4.07;2.97;;;;;;;21.77;69.99;100893.44;;;;-51
2021/08/17 06:28:07;;;;;;;4.59;3.01;;;;;;;21.77;70.07;100901.83;;;;-51
2021/08/17 06:31:07;;;;;;;4.88;3.06;;;;;;;21.76;70.11;100907.84;;;;-51
2021/08/17 06:34:07;;;;;;;3.94;3.29;;;;;;;21.77;70.18;100906.32;;;;-51
2021/08/17 06:37:07;;;;;;;3.35;2.95;;;;;;;21.77;70.19;100915.35;;;;-51
2021/08/17 06:40:07;;;;;;;3.37;3.07;;;;;;;21.77;70.19;100911.92;;;;-51
2021/08/17 06:43:07;;;;;;;3.74;2.98;;;;;;;21.77;70.25;100916.19;;;;-51
2021/08/17 06:46:07;;;;;;;3.55;3.06;;;;;;;21.77;70.23;100912.60;;;;-58
2021/08/17 06:49:07;;;;;;;3.39;3.05;;;;;;;21.77;70.29;100910.08;;;;-58
2021/08/17 06:52:07;;;;;;;3.41;3.03;;;;;;;21.77;70.45;100906.65;;;;-54
2021/08/17 06:55:07;;;;;;;3.35;3.05;;;;;;;21.77;70.43;100915.78;;;;-56
2021/08/17 06:58:11;;;;;;;3.89;3.11;;;;;;;21.77;70.41;100916.03;;;;-56
2021/08/17 07:01:07;;;;;;;3.46;2.93;;;;;;;21.77;70.45;100916.27;;;;-51
2021/08/17 07:04:07;;;;;;;3.52;3.14;;;;;;;21.77;70.41;100912.36;;;;-50
2021/08/17 07:07:07;;;;;;;3.41;3.05;;;;;;;21.77;70.38;100911.37;;;;-50
2021/08/17 07:10:07;;;;;;;3.34;2.94;;;;;;;21.77;70.51;100918.07;;;;-50
2021/08/17 07:13:07;;;;;;;3.29;2.99;;;;;;;21.77;70.48;100919.13;;;;-51
2021/08/17 07:16:07;;;;;;;4.01;3.15;;;;;;;21.77;70.48;100920.19;;;;-51
2021/08/17 07:19:07;;;;;;;3.39;3.05;;;;;;;21.76;70.51;100914.62;;;;-50
2021/08/17 07:22:07;;;;;;;3.89;3.12;;;;;;;21.77;70.48;100911.55;;;;-51
2021/08/17 07:25:07;;;;;;;3.41;3.11;;;;;;;21.77;70.57;100912.41;;;;-50
2021/08/17 07:28:09;;;;;;;3.69;2.97;;;;;;;21.76;70.63;100914.78;;;;-50
2021/08/17 07:31:07;;;;;;;3.05;2.75;;;;;;;21.76;70.58;100915.11;;;;-51
2021/08/17 07:34:07;;;;;;;3.31;3.01;;;;;;;21.76;70.62;100909.81;;;;-51
2021/08/17 07:37:07;;;;;;;3.00;2.70;;;;;;;21.76;70.61;100907.61;;;;-51
2021/08/17 07:40:07;;;;;;;3.02;2.74;;;;;;;21.76;70.57;100905.97;;;;-51
2021/08/17 07:43:07;;;;;;;3.53;2.89;;;;;;;21.76;70.64;100904.83;;;;-51
2021/08/17 07:46:07;;;;;;;3.48;3.15;;;;;;;21.76;70.60;100908.50;;;;-51
2021/08/17 07:49:07;;;;;;;3.19;2.89;;;;;;;21.74;70.72;100910.94;;;;-56
2021/08/17 07:52:07;;;;;;;10.67;6.35;;;;;;;21.61;66.29;100912.61;;;;-51
2021/08/17 07:55:07;;;;;;;9.96;7.18;;;;;;;21.42;65.24;100912.73;;;;-51
2021/08/17 07:58:07;;;;;;;10.18;7.42;;;;;;;21.35;65.18;100916.75;;;;-51
2021/08/17 08:01:07;;;;;;;10.05;7.33;;;;;;;21.24;64.70;100916.53;;;;-51
2021/08/17 08:04:07;;;;;;;9.89;7.29;;;;;;;21.14;64.45;100915.56;;;;-58
2021/08/17 08:07:07;;;;;;;10.11;7.50;;;;;;;21.19;64.97;100917.48;;;;-53
2021/08/17 08:10:07;;;;;;;13.61;7.37;;;;;;;21.18;65.15;100916.56;;;;-57
2021/08/17 08:13:07;;;;;;;10.13;6.99;;;;;;;21.19;64.90;100917.98;;;;-52
2021/08/17 08:16:07;;;;;;;11.45;7.51;;;;;;;21.16;65.12;100919.32;;;;-56
2021/08/17 08:19:07;;;;;;;10.69;7.37;;;;;;;21.13;64.93;100921.11;;;;-56
2021/08/17 08:22:07;;;;;;;10.08;6.96;;;;;;;21.11;64.92;100918.48;;;;-56
2021/08/17 08:25:07;;;;;;;8.59;6.84;;;;;;;21.11;65.05;100923.30;;;;-55
2021/08/17 08:28:07;;;;;;;9.62;6.87;;;;;;;21.16;64.97;100919.41;;;;-59
2021/08/17 08:31:07;;;;;;;10.01;7.22;;;;;;;21.12;64.98;100925.66;;;;-57
2021/08/17 08:34:07;;;;;;;9.53;7.31;;;;;;;21.12;65.12;100925.25;;;;-58
2021/08/17 08:37:07;;;;;;;10.15;7.33;;;;;;;21.09;65.16;100920.27;;;;-53
2021/08/17 08:40:07;;;;;;;9.70;7.03;;;;;;;21.08;65.40;100914.00;;;;-59
2021/08/17 08:43:07;;;;;;;11.01;7.76;;;;;;;21.11;65.34;100920.28;;;;-55
2021/08/17 08:46:07;;;;;;;11.11;7.39;;;;;;;21.11;65.21;100920.61;;;;-54
2021/08/17 08:49:07;;;;;;;9.21;7.04;;;;;;;21.09;64.79;100924.02;;;;-53
2021/08/17 08:52:07;;;;;;;10.83;7.26;;;;;;;21.07;64.92;100930.84;;;;-61
2021/08/17 08:55:07;;;;;;;10.86;7.36;;;;;;;21.03;64.64;100932.20;;;;-59
2021/08/17 08:58:07;;;;;;;10.02;6.88;;;;;;;21.05;64.56;100926.59;;;;-59
2021/08/17 09:01:07;;;;;;;10.01;7.08;;;;;;;21.02;64.73;100918.33;;;;-58
2021/08/17 09:04:07;;;;;;;9.42;7.00;;;;;;;21.03;64.35;100916.88;;;;-53
2021/08/17 09:07:07;;;;;;;10.03;6.97;;;;;;;21.02;64.55;100919.00;;;;-57
2021/08/17 09:10:07;;;;;;;8.07;6.69;;;;;;;21.03;64.44;100920.80;;;;-55
2021/08/17 09:13:07;;;;;;;9.11;6.48;;;;;;;21.08;64.82;100919.70;;;;-54
2021/08/17 09:16:07;;;;;;;9.33;6.97;;;;;;;21.12;65.03;100918.73;;;;-54
2021/08/17 09:19:07;;;;;;;11.82;6.97;;;;;;;21.16;65.09;100920.23;;;;-53
2021/08/17 09:22:07;;;;;;;9.73;6.97;;;;;;;21.20;65.34;100920.17;;;;-54
2021/08/17 09:25:07;;;;;;;10.21;7.05;;;;;;;21.24;65.85;100916.77;;;;-54
2021/08/17 09:28:07;;;;;;;9.75;6.32;;;;;;;21.26;65.82;100914.17;;;;-53
2021/08/17 09:31:07;;;;;;;9.03;6.73;;;;;;;21.29;66.23;100917.77;;;;-54
2021/08/17 09:34:07;;;;;;;9.75;6.69;;;;;;;21.32;66.29;100913.41;;;;-59
2021/08/17 09:37:09;;;;;;;10.55;6.61;;;;;;;21.30;65.83;100915.09;;;;-61
2021/08/17 09:40:07;;;;;;;8.61;6.88;;;;;;;21.30;65.69;100914.86;;;;-51
2021/08/17 09:43:07;;;;;;;13.47;6.76;;;;;;;21.31;65.68;100907.19;;;;-60
2021/08/17 09:46:07;;;;;;;16.51;6.85;;;;;;;21.27;65.47;100903.92;;;;-61
2021/08/17 09:49:07;;;;;;;13.99;6.97;;;;;;;21.27;65.43;100890.37;;;;-60
2021/08/17 09:52:07;;;;;;;9.47;7.15;;;;;;;21.27;65.20;100875.86;;;;-60
2021/08/17 09:55:07;;;;;;;9.73;6.99;;;;;;;21.28;65.25;100886.80;;;;-58
2021/08/17 09:58:07;;;;;;;10.49;7.20;;;;;;;21.27;65.35;100887.44;;;;-60
2021/08/17 10:01:07;;;;;;;9.30;6.84;;;;;;;21.27;65.19;100894.52;;;;-60
2021/08/17 10:04:07;;;;;;;9.13;7.25;;;;;;;21.26;65.30;100896.33;;;;-62
2021/08/17 10:07:07;;;;;;;9.29;6.78;;;;;;;21.27;65.28;100903.03;;;;-59
2021/08/17 10:10:07;;;;;;;10.61;7.20;;;;;;;21.24;64.63;100906.50;;;;-55
2021/08/17 10:13:07;;;;;;;11.36;7.11;;;;;;;21.26;64.99;100899.75;;;;-53
2021/08/17 10:16:07;;;;;;;8.66;6.87;;;;;;;21.25;64.77;100893.48;;;;-53
2021/08/17 10:19:07;;;;;;;9.44;6.68;;;;;;;21.25;64.76;100890.95;;;;-58
2021/08/17 10:22:07;;;;;;;9.13;6.96;;;;;;;21.24;64.68;100885.30;;;;-51
2021/08/17 10:25:10;;;;;;;12.05;6.67;;;;;;;21.25;64.86;100874.81;;;;-52
2021/08/17 10:28:07;;;;;;;10.61;6.74;;;;;;;21.31;65.02;100874.25;;;;-55
2021/08/17 10:31:07;;;;;;;13.19;7.07;;;;;;;21.34;65.18;100880.07;;;;-60
2021/08/17 10:34:07;;;;;;;8.93;6.46;;;;;;;21.37;65.44;100866.95;;;;-60
2021/08/17 10:37:07;;;;;;;9.95;6.87;;;;;;;21.38;65.41;100862.55;;;;-60
2021/08/17 10:40:07;;;;;;;8.43;6.50;;;;;;;21.41;65.73;100858.56;;;;-60
2021/08/17 10:43:07;;;;;;;9.00;6.24;;;;;;;21.43;65.70;100849.89;;;;-60
2021/08/17 10:46:07;;;;;;;9.37;6.33;;;;;;;21.44;65.77;100838.89;;;;-60
2021/08/17 10:49:07;;;;;;;9.59;6.54;;;;;;;21.45;66.00;100836.59;;;;-61
2021/08/17 10:52:07;;;;;;;8.03;6.27;;;;;;;21.46;65.97;100849.02;;;;-60
2021/08/17 10:55:07;;;;;;;8.25;6.17;;;;;;;21.47;66.12;100847.05;;;;-60
2021/08/17 10:58:07;;;;;;;9.07;6.09;;;;;;;21.48;66.20;100842.17;;;;-61
2021/08/17 11:01:07;;;;;;;8.48;6.39;;;;;;;21.49;66.24;100837.27;;;;-61
2021/08/17 11:04:09;;;;;;;7.36;5.87;;;;;;;21.50;66.36;100834.52;;;;-53
2021/08/17 11:07:07;;;;;;;7.75;6.04;;;;;;;21.51;66.40;100842.75;;;;-53
2021/08/17 11:10:08;;;;;;;7.19;5.89;;;;;;;21.52;66.45;100841.27;;;;-53
2021/08/17 11:13:07;;;;;;;7.35;5.68;;;;;;;21.52;66.53;100836.56;;;;-53
2021/08/17 11:16:07;;;;;;;7.12;5.86;;;;;;;21.53;66.66;100828.65;;;;-53
2021/08/17 11:19:07;;;;;;;6.61;5.91;;;;;;;21.54;66.63;100837.36;;;;-53
2021/08/17 11:22:07;;;;;;;7.90;5.71;;;;;;;21.54;66.65;100829.88;;;;-60
2021/08/17 11:25:07;;;;;;;7.63;5.95;;;;;;;21.55;66.63;100819.77;;;;-61
2021/08/17 11:28:07;;;;;;;7.03;5.80;;;;;;;21.56;66.80;100832.89;;;;-60
2021/08/17 11:31:07;;;;;;;6.92;5.72;;;;;;;21.56;66.79;100828.56;;;;-53
2021/08/17 11:34:07;;;;;;;6.56;5.54;;;;;;;21.56;66.92;100816.49;;;;-53
2021/08/17 11:37:07;;;;;;;6.83;5.62;;;;;;;21.57;66.93;100822.47;;;;-53
2021/08/17 11:40:07;;;;;;;8.06;5.69;;;;;;;21.58;66.89;100828.81;;;;-53
2021/08/17 11:43:07;;;;;;;7.05;5.53;;;;;;;21.58;66.92;100828.68;;;;-53
2021/08/17 11:46:07;;;;;;;7.93;5.66;;;;;;;21.59;66.99;100827.05;;;;-52
2021/08/17 11:49:07;;;;;;;6.59;5.75;;;;;;;21.59;66.97;100827.36;;;;-52
2021/08/17 11:52:07;;;;;;;6.85;5.83;;;;;;;21.59;67.06;100819.20;;;;-52
2021/08/17 11:55:07;;;;;;;7.11;5.45;;;;;;;21.60;67.17;100806.31;;;;-49
2021/08/17 11:58:07;;;;;;;6.68;5.58;;;;;;;21.62;67.28;100810.73;;;;-50
2021/08/17 12:01:07;;;;;;;6.99;5.29;;;;;;;21.65;67.26;100817.92;;;;-50
2021/08/17 12:04:07;;;;;;;8.19;5.75;;;;;;;21.66;67.33;100812.05;;;;-49
2021/08/17 12:07:07;;;;;;;7.15;5.59;;;;;;;21.68;67.31;100812.30;;;;-48
2021/08/17 12:10:07;;;;;;;7.53;5.39;;;;;;;21.69;67.46;100812.97;;;;-49
2021/08/17 12:13:07;;;;;;;6.73;5.15;;;;;;;21.70;67.53;100805.52;;;;-47
2021/08/17 12:16:08;;;;;;;7.21;5.38;;;;;;;21.72;67.56;100806.27;;;;-58
2021/08/17 12:19:09;;;;;;;7.42;5.26;;;;;;;21.73;67.66;100796.41;;;;-51
2021/08/17 12:22:07;;;;;;;6.39;5.25;;;;;;;21.74;67.77;100796.41;;;;-52
2021/08/17 12:25:06;;;;;;;6.29;5.05;;;;;;;21.75;67.79;100789.41;;;;-51
2021/08/17 12:28:07;;;;;;;6.61;5.13;;;;;;;21.76;67.85;100788.91;;;;-55
2021/08/17 12:31:07;;;;;;;6.01;4.87;;;;;;;21.77;67.90;100774.89;;;;-59
2021/08/17 12:34:07;;;;;;;6.98;5.27;;;;;;;21.77;67.73;100772.04;;;;-63
2021/08/17 12:37:07;;;;;;;5.89;5.11;;;;;;;21.77;67.74;100765.34;;;;-63
2021/08/17 12:40:07;;;;;;;8.13;5.17;;;;;;;21.78;67.65;100764.76;;;;-61
2021/08/17 12:43:07;;;;;;;7.07;5.15;;;;;;;21.79;67.65;100773.67;;;;-59
2021/08/17 12:46:07;;;;;;;7.07;5.07;;;;;;;21.80;67.26;100772.60;;;;-54
2021/08/17 12:49:07;;;;;;;10.67;5.41;;;;;;;21.80;67.04;100766.80;;;;-47
2021/08/17 12:52:07;;;;;;;9.41;5.46;;;;;;;21.82;66.75;100768.03;;;;-52
2021/08/17 12:55:07;;;;;;;8.17;5.15;;;;;;;21.83;67.20;100771.53;;;;-51
2021/08/17 12:58:08;;;;;;;8.44;5.21;;;;;;;21.82;67.16;100767.54;;;;-57
2021/08/17 13:01:07;;;;;;;10.53;5.29;;;;;;;21.83;66.98;100766.55;;;;-57
2021/08/17 13:04:07;;;;;;;6.48;4.95;;;;;;;21.83;66.90;100770.88;;;;-55
2021/08/17 13:07:07;;;;;;;6.47;4.84;;;;;;;21.82;67.04;100772.84;;;;-54
2021/08/17 13:10:07;;;;;;;6.89;4.45;;;;;;;21.82;67.05;100768.03;;;;-53
2021/08/17 13:13:07;;;;;;;6.85;4.90;;;;;;;21.83;67.07;100762.06;;;;-51
2021/08/17 13:16:07;;;;;;;7.64;5.17;;;;;;;21.84;67.03;100754.33;;;;-51
2021/08/17 13:19:07;;;;;;;8.41;5.01;;;;;;;21.84;66.93;100747.39;;;;-53
2021/08/17 13:22:07;;;;;;;6.45;4.78;;;;;;;21.85;66.91;100737.62;;;;-60
2021/08/17 13:25:07;;;;;;;8.36;4.83;;;;;;;21.85;66.79;100739.00;;;;-58
2021/08/17 13:28:07;;;;;;;6.31;4.61;;;;;;;21.86;66.83;100741.12;;;;-59
2021/08/17 13:31:07;;;;;;;5.39;4.52;;;;;;;21.86;66.73;100730.67;;;;-51
2021/08/17 13:34:07;;;;;;;7.01;5.18;;;;;;;21.86;66.65;100716.23;;;;-51
2021/08/17 13:37:07;;;;;;;6.45;4.80;;;;;;;21.86;66.78;100702.59;;;;-52
2021/08/17 13:40:07;;;;;;;7.39;5.26;;;;;;;21.86;66.88;100696.72;;;;-52
2021/08/17 13:43:07;;;;;;;6.41;4.61;;;;;;;21.88;66.99;100706.11;;;;-52
2021/08/17 13:46:07;;;;;;;7.35;4.98;;;;;;;21.88;67.01;100700.89;;;;-51
2021/08/17 13:49:07;;;;;;;7.85;4.73;;;;;;;21.89;67.02;100699.66;;;;-50
2021/08/17 13:52:07;;;;;;;6.59;4.45;;;;;;;21.90;67.02;100701.70;;;;-61
2021/08/17 13:55:07;;;;;;;5.80;4.56;;;;;;;21.91;67.12;100700.63;;;;-55
2021/08/17 13:58:07;;;;;;;6.29;4.73;;;;;;;21.92;67.09;100699.75;;;;-51
2021/08/17 14:01:07;;;;;;;6.17;4.51;;;;;;;21.92;67.24;100700.23;;;;-49
2021/08/17 14:04:07;;;;;;;6.30;4.58;;;;;;;21.93;67.27;100701.63;;;;-51
2021/08/17 14:07:07;;;;;;;6.11;4.49;;;;;;;21.95;67.28;100697.95;;;;-53
2021/08/17 14:10:10;;;;;;;6.02;4.68;;;;;;;21.96;67.27;100700.40;;;;-54
2021/08/17 14:13:07;;;;;;;7.09;4.63;;;;;;;21.96;67.37;100705.05;;;;-55
2021/08/17 14:16:07;;;;;;;5.81;4.49;;;;;;;21.97;67.32;100698.91;;;;-52
2021/08/17 14:19:07;;;;;;;6.71;4.71;;;;;;;21.98;67.34;100704.58;;;;-52
2021/08/17 14:22:07;;;;;;;5.25;4.41;;;;;;;21.98;67.40;100696.08;;;;-54
2021/08/17 14:25:07;;;;;;;5.75;4.21;;;;;;;21.98;67.47;100690.61;;;;-55
2021/08/17 14:28:07;;;;;;;5.15;4.03;;;;;;;21.98;67.43;100689.47;;;;-52
2021/08/17 14:31:07;;;;;;;4.91;4.14;;;;;;;22.00;67.49;100697.88;;;;-52
2021/08/17 14:34:07;;;;;;;5.51;4.38;;;;;;;22.00;67.51;100700.90;;;;-52
2021/08/17 14:37:07;;;;;;;6.29;4.29;;;;;;;21.99;67.41;100700.72;;;;-61
2021/08/17 14:40:07;;;;;;;5.41;4.44;;;;;;;21.99;67.55;100702.67;;;;-51
2021/08/17 14:43:07;;;;;;;5.77;4.60;;;;;;;21.99;67.50;100696.88;;;;-52
2021/08/17 14:46:07;;;;;;;6.77;4.43;;;;;;;21.99;67.50;100700.96;;;;-53
2021/08/17 14:49:07;;;;;;;8.08;4.31;;;;;;;21.98;67.53;100697.80;;;;-52
2021/08/17 14:52:07;;;;;;;7.61;4.25;;;;;;;21.99;67.50;100693.30;;;;-52
2021/08/17 14:55:07;;;;;;;7.09;4.42;;;;;;;21.97;67.55;100699.08;;;;-52
2021/08/17 14:58:07;;;;;;;7.10;4.10;;;;;;;21.97;67.51;100695.58;;;;-52
2021/08/17 15:01:07;;;;;;;5.79;4.19;;;;;;;21.97;67.54;100696.55;;;;-52
2021/08/17 15:04:07;;;;;;;6.25;4.09;;;;;;;21.96;67.62;100691.75;;;;-52
2021/08/17 15:07:07;;;;;;;5.07;4.35;;;;;;;21.96;67.52;100691.34;;;;-53
2021/08/17 15:10:07;;;;;;;6.19;4.33;;;;;;;21.96;67.70;100682.94;;;;-52
2021/08/17 15:13:07;;;;;;;4.92;3.79;;;;;;;21.98;67.62;100686.28;;;;-52
2021/08/17 15:16:07;;;;;;;6.55;4.15;;;;;;;22.00;67.56;100682.87;;;;-50
2021/08/17 15:19:07;;;;;;;5.62;4.06;;;;;;;21.99;67.70;100674.44;;;;-47
2021/08/17 15:22:07;;;;;;;6.91;4.17;;;;;;;22.00;67.68;100664.25;;;;-48
2021/08/17 15:25:07;;;;;;;6.85;4.03;;;;;;;22.02;67.73;100661.86;;;;-48
2021/08/17 15:28:07;;;;;;;9.31;4.11;;;;;;;22.01;67.95;100661.46;;;;-49
2021/08/17 15:31:07;;;;;;;5.58;4.27;;;;;;;22.03;67.92;100665.55;;;;-59
2021/08/17 15:34:07;;;;;;;6.77;4.05;;;;;;;22.04;67.87;100664.75;;;;-57
2021/08/17 15:37:07;;;;;;;5.57;4.07;;;;;;;22.04;67.88;100659.02;;;;-51
2021/08/17 15:40:07;;;;;;;6.60;3.83;;;;;;;22.04;67.93;100663.52;;;;-56
2021/08/17 15:43:07;;;;;;;7.30;4.03;;;;;;;22.05;68.00;100667.09;;;;-58
2021/08/17 15:46:07;;;;;;;5.91;3.96;;;;;;;22.07;68.05;100671.34;;;;-50
2021/08/17 15:49:07;;;;;;;6.99;3.97;;;;;;;22.06;68.15;100671.92;;;;-60
2021/08/17 15:52:07;;;;;;;6.35;3.68;;;;;;;22.06;68.17;100664.73;;;;-54
2021/08/17 15:55:07;;;;;;;5.93;4.05;;;;;;;22.07;68.14;100661.30;;;;-51
2021/08/17 15:58:08;;;;;;;7.05;3.97;;;;;;;22.07;68.14;100659.17;;;;-55
2021/08/17 16:01:07;;;;;;;6.02;3.92;;;;;;;22.08;68.22;100661.97;;;;-50
2021/08/17 16:04:07;;;;;;;5.47;3.81;;;;;;;22.08;68.15;100665.61;;;;-52
2021/08/17 16:07:07;;;;;;;6.86;3.93;;;;;;;22.07;68.21;100659.66;;;;-52
2021/08/17 16:10:07;;;;;;;5.09;3.76;;;;;;;22.08;68.15;100654.34;;;;-53
2021/08/17 16:13:07;;;;;;;5.69;4.08;;;;;;;22.08;68.11;100652.16;;;;-52
2021/08/17 16:16:07;;;;;;;6.03;3.68;;;;;;;22.10;68.08;100647.49;;;;-52
2021/08/17 16:19:07;;;;;;;6.36;3.69;;;;;;;22.10;68.09;100641.61;;;;-61
2021/08/17 16:22:07;;;;;;;8.53;3.89;;;;;;;22.10;68.11;100642.04;;;;-64
2021/08/17 16:25:07;;;;;;;6.39;4.09;;;;;;;22.11;68.10;100637.30;;;;-61
2021/08/17 16:28:07;;;;;;;7.45;3.62;;;;;;;22.11;68.08;100632.80;;;;-62
2021/08/17 16:31:07;;;;;;;5.89;4.03;;;;;;;22.11;68.12;100633.38;;;;-58
2021/08/17 16:34:07;;;;;;;5.97;3.65;;;;;;;22.12;68.17;100632.39;;;;-51
2021/08/17 16:37:07;;;;;;;5.04;3.73;;;;;;;22.12;68.29;100629.61;;;;-48
2021/08/17 16:40:07;;;;;;;5.84;3.86;;;;;;;22.13;68.24;100623.59;;;;-51
2021/08/17 16:43:07;;;;;;;4.87;3.75;;;;;;;22.13;68.31;100617.22;;;;-52